sensor_id;sensor_type;location;lat;lon;timestamp;P1;durP1;ratioP1;P2;durP2;ratioP2
55659;SDS011;41534;53.550;9.964;2024-03-23T00:56:03;323.98;;;171.32;;
55659;SDS011;41534;53.550;9.964;2024-03-23T00:59:03;319.70;;;172.82;;
55659;SDS011;41534;53.550;9.964;2024-03-23T01:02:03;323.20;;;170.98;;
55659;SDS011;41534;53.550;9.964;2024-03-23T01:05:04;305.38;;;163.88;;
55659;SDS011;41534;53.550;9.964;2024-03-23T01:08:04;308.42;;;164.10;;
55659;SDS011;41534;53.550;9.964;2024-03-23T01:11:05;319.55;;;165.68;;
55659;SDS011;41534;53.550;9.964;2024-03-23T01:14:05;312.85;;;164.10;;
55659;SDS011;41534;53.550;9.964;2024-03-23T01:17:06;298.67;;;157.00;;
55659;SDS011;41534;53.550;9.964;2024-03-23T01:20:06;285.13;;;154.63;;
55659;SDS011;41534;53.550;9.964;2024-03-23T01:23:07;289.60;;;153.93;;
55659;SDS011;41534;53.550;9.964;2024-03-23T01:26:07;293.00;;;156.70;;
55659;SDS011;41534;53.550;9.964;2024-03-23T01:29:07;289.30;;;158.40;;
55659;SDS011;41534;53.550;9.964;2024-03-23T01:32:07;291.70;;;155.40;;
55659;SDS011;41534;53.550;9.964;2024-03-23T01:35:08;292.50;;;152.25;;
55659;SDS011;41534;53.550;9.964;2024-03-23T01:38:08;286.10;;;153.95;;
55659;SDS011;41534;53.550;9.964;2024-03-23T01:41:08;287.33;;;149.00;;
55659;SDS011;41534;53.550;9.964;2024-03-23T01:44:09;278.98;;;149.50;;
55659;SDS011;41534;53.550;9.964;2024-03-23T01:47:09;275.42;;;146.95;;
55659;SDS011;41534;53.550;9.964;2024-03-23T01:50:09;271.50;;;145.35;;
55659;SDS011;41534;53.550;9.964;2024-03-23T01:53:10;269.73;;;146.43;;
55659;SDS011;41534;53.550;9.964;2024-03-23T01:56:10;272.88;;;145.20;;
55659;SDS011;41534;53.550;9.964;2024-03-23T01:59:10;276.63;;;145.75;;
55659;SDS011;41534;53.550;9.964;2024-03-23T02:02:11;263.65;;;144.52;;
55659;SDS011;41534;53.550;9.964;2024-03-23T02:05:11;267.55;;;142.50;;
55659;SDS011;41534;53.550;9.964;2024-03-23T02:08:12;269.27;;;142.57;;
55659;SDS011;41534;53.550;9.964;2024-03-23T02:11:13;253.15;;;138.98;;
55659;SDS011;41534;53.550;9.964;2024-03-23T02:14:13;249.52;;;134.82;;
55659;SDS011;41534;53.550;9.964;2024-03-23T02:17:13;244.32;;;135.23;;
55659;SDS011;41534;53.550;9.964;2024-03-23T02:20:14;252.35;;;135.82;;
55659;SDS011;41534;53.550;9.964;2024-03-23T02:23:14;252.93;;;135.23;;
55659;SDS011;41534;53.550;9.964;2024-03-23T02:26:15;241.45;;;132.57;;
55659;SDS011;41534;53.550;9.964;2024-03-23T02:29:16;250.38;;;135.00;;
55659;SDS011;41534;53.550;9.964;2024-03-23T02:32:16;240.93;;;132.27;;
55659;SDS011;41534;53.550;9.964;2024-03-23T02:35:16;244.93;;;131.65;;
55659;SDS011;41534;53.550;9.964;2024-03-23T02:38:16;234.73;;;129.15;;
55659;SDS011;41534;53.550;9.964;2024-03-23T02:41:17;238.20;;;128.50;;
55659;SDS011;41534;53.550;9.964;2024-03-23T02:44:17;231.20;;;126.80;;
55659;SDS011;41534;53.550;9.964;2024-03-23T02:47:17;233.70;;;127.60;;
55659;SDS011;41534;53.550;9.964;2024-03-23T02:50:18;221.80;;;124.00;;
55659;SDS011;41534;53.550;9.964;2024-03-23T02:53:19;229.77;;;124.68;;
55659;SDS011;41534;53.550;9.964;2024-03-23T02:56:19;216.25;;;121.03;;
55659;SDS011;41534;53.550;9.964;2024-03-23T02:59:19;212.43;;;119.65;;
55659;SDS011;41534;53.550;9.964;2024-03-23T03:02:20;214.02;;;115.68;;
55659;SDS011;41534;53.550;9.964;2024-03-23T03:05:20;209.10;;;113.65;;
55659;SDS011;41534;53.550;9.964;2024-03-23T03:08:21;206.60;;;116.20;;
55659;SDS011;41534;53.550;9.964;2024-03-23T03:11:21;204.48;;;111.82;;
55659;SDS011;41534;53.550;9.964;2024-03-23T03:14:21;198.07;;;107.57;;
55659;SDS011;41534;53.550;9.964;2024-03-23T03:17:22;183.20;;;101.95;;
55659;SDS011;41534;53.550;9.964;2024-03-23T03:20:22;175.30;;;97.85;;
55659;SDS011;41534;53.550;9.964;2024-03-23T03:23:22;176.88;;;98.25;;
55659;SDS011;41534;53.550;9.964;2024-03-23T03:26:22;172.00;;;98.00;;
55659;SDS011;41534;53.550;9.964;2024-03-23T03:29:23;179.68;;;97.38;;
55659;SDS011;41534;53.550;9.964;2024-03-23T03:32:24;177.90;;;98.03;;
55659;SDS011;41534;53.550;9.964;2024-03-23T03:35:24;179.30;;;98.07;;
55659;SDS011;41534;53.550;9.964;2024-03-23T03:38:24;124.30;;;66.20;;
55659;SDS011;41534;53.550;9.964;2024-03-23T03:41:24;97.20;;;50.95;;
55659;SDS011;41534;53.550;9.964;2024-03-23T03:44:25;104.30;;;54.08;;
55659;SDS011;41534;53.550;9.964;2024-03-23T03:47:25;97.35;;;51.38;;
55659;SDS011;41534;53.550;9.964;2024-03-23T03:50:26;93.50;;;50.00;;
55659;SDS011;41534;53.550;9.964;2024-03-23T03:53:26;86.75;;;47.55;;
55659;SDS011;41534;53.550;9.964;2024-03-23T03:56:26;87.35;;;45.45;;
55659;SDS011;41534;53.550;9.964;2024-03-23T03:59:26;82.00;;;44.70;;
55659;SDS011;41534;53.550;9.964;2024-03-23T04:02:27;80.57;;;42.47;;
55659;SDS011;41534;53.550;9.964;2024-03-23T04:05:27;74.95;;;40.50;;
55659;SDS011;41534;53.550;9.964;2024-03-23T04:08:27;76.22;;;39.70;;
55659;SDS011;41534;53.550;9.964;2024-03-23T04:11:27;67.53;;;35.92;;
55659;SDS011;41534;53.550;9.964;2024-03-23T04:14:28;69.70;;;36.42;;
55659;SDS011;41534;53.550;9.964;2024-03-23T04:17:28;63.13;;;33.67;;
55659;SDS011;41534;53.550;9.964;2024-03-23T04:20:28;58.22;;;32.28;;
55659;SDS011;41534;53.550;9.964;2024-03-23T04:23:28;61.65;;;32.05;;
55659;SDS011;41534;53.550;9.964;2024-03-23T04:26:29;52.42;;;29.13;;
55659;SDS011;41534;53.550;9.964;2024-03-23T04:29:29;49.78;;;27.77;;
55659;SDS011;41534;53.550;9.964;2024-03-23T04:32:29;53.40;;;28.90;;
55659;SDS011;41534;53.550;9.964;2024-03-23T04:35:30;52.28;;;27.20;;
55659;SDS011;41534;53.550;9.964;2024-03-23T04:38:30;45.45;;;25.08;;
55659;SDS011;41534;53.550;9.964;2024-03-23T04:41:30;48.03;;;24.40;;
55659;SDS011;41534;53.550;9.964;2024-03-23T04:44:31;41.47;;;23.17;;
55659;SDS011;41534;53.550;9.964;2024-03-23T04:47:31;44.88;;;23.27;;
55659;SDS011;41534;53.550;9.964;2024-03-23T04:50:31;38.25;;;20.75;;
55659;SDS011;41534;53.550;9.964;2024-03-23T04:53:32;40.10;;;21.73;;
55659;SDS011;41534;53.550;9.964;2024-03-23T04:56:32;37.25;;;20.60;;
55659;SDS011;41534;53.550;9.964;2024-03-23T04:59:32;36.60;;;20.30;;
55659;SDS011;41534;53.550;9.964;2024-03-23T05:02:33;35.42;;;19.30;;
55659;SDS011;41534;53.550;9.964;2024-03-23T05:05:33;31.77;;;17.50;;
55659;SDS011;41534;53.550;9.964;2024-03-23T05:08:33;31.98;;;17.38;;
55659;SDS011;41534;53.550;9.964;2024-03-23T05:11:33;29.38;;;16.13;;
55659;SDS011;41534;53.550;9.964;2024-03-23T05:14:34;28.73;;;15.65;;
55659;SDS011;41534;53.550;9.964;2024-03-23T05:17:34;26.52;;;14.98;;
55659;SDS011;41534;53.550;9.964;2024-03-23T05:20:34;30.35;;;14.43;;
55659;SDS011;41534;53.550;9.964;2024-03-23T05:23:34;29.80;;;14.55;;
55659;SDS011;41534;53.550;9.964;2024-03-23T05:26:35;26.48;;;14.45;;
55659;SDS011;41534;53.550;9.964;2024-03-23T05:29:35;25.27;;;13.27;;
55659;SDS011;41534;53.550;9.964;2024-03-23T05:32:35;24.35;;;12.75;;
55659;SDS011;41534;53.550;9.964;2024-03-23T05:35:36;24.85;;;13.05;;
55659;SDS011;41534;53.550;9.964;2024-03-23T05:38:37;21.48;;;11.93;;
55659;SDS011;41534;53.550;9.964;2024-03-23T05:41:37;22.00;;;11.43;;
55659;SDS011;41534;53.550;9.964;2024-03-23T05:44:38;22.60;;;11.30;;
55659;SDS011;41534;53.550;9.964;2024-03-23T05:47:38;19.15;;;10.75;;
55659;SDS011;41534;53.550;9.964;2024-03-23T05:50:38;21.13;;;9.93;;
55659;SDS011;41534;53.550;9.964;2024-03-23T05:53:39;21.50;;;10.65;;
55659;SDS011;41534;53.550;9.964;2024-03-23T05:56:39;20.20;;;10.00;;
55659;SDS011;41534;53.550;9.964;2024-03-23T05:59:39;19.92;;;9.35;;
55659;SDS011;41534;53.550;9.964;2024-03-23T06:02:39;16.90;;;9.48;;
55659;SDS011;41534;53.550;9.964;2024-03-23T06:05:40;16.95;;;9.35;;
55659;SDS011;41534;53.550;9.964;2024-03-23T06:08:40;18.88;;;9.13;;
55659;SDS011;41534;53.550;9.964;2024-03-23T06:11:40;17.17;;;9.57;;
55659;SDS011;41534;53.550;9.964;2024-03-23T06:14:40;24.75;;;10.32;;
55659;SDS011;41534;53.550;9.964;2024-03-23T06:17:41;17.85;;;8.80;;
55659;SDS011;41534;53.550;9.964;2024-03-23T06:20:41;16.90;;;8.30;;
55659;SDS011;41534;53.550;9.964;2024-03-23T06:23:41;16.73;;;8.23;;
55659;SDS011;41534;53.550;9.964;2024-03-23T06:26:42;19.27;;;8.02;;
55659;SDS011;41534;53.550;9.964;2024-03-23T06:29:42;14.75;;;7.80;;
55659;SDS011;41534;53.550;9.964;2024-03-23T06:32:43;13.93;;;7.70;;
55659;SDS011;41534;53.550;9.964;2024-03-23T06:35:43;14.20;;;7.00;;
55659;SDS011;41534;53.550;9.964;2024-03-23T06:38:50;13.82;;;7.22;;
55659;SDS011;41534;53.550;9.964;2024-03-23T06:41:53;10.23;;;6.28;;
55659;SDS011;41534;53.550;9.964;2024-03-23T06:44:54;13.32;;;6.35;;
55659;SDS011;41534;53.550;9.964;2024-03-23T06:47:54;11.45;;;6.18;;
55659;SDS011;41534;53.550;9.964;2024-03-23T06:50:55;16.05;;;5.90;;
55659;SDS011;41534;53.550;9.964;2024-03-23T06:53:58;11.88;;;5.65;;
55659;SDS011;41534;53.550;9.964;2024-03-23T06:56:59;19.70;;;6.10;;
55659;SDS011;41534;53.550;9.964;2024-03-23T06:59:59;10.10;;;5.43;;
55659;SDS011;41534;53.550;9.964;2024-03-23T07:02:59;11.00;;;5.40;;
55659;SDS011;41534;53.550;9.964;2024-03-23T07:06:00;10.45;;;5.05;;
55659;SDS011;41534;53.550;9.964;2024-03-23T07:09:00;12.35;;;5.40;;
55659;SDS011;41534;53.550;9.964;2024-03-23T07:12:00;9.68;;;5.25;;
55659;SDS011;41534;53.550;9.964;2024-03-23T07:15:01;10.30;;;5.32;;
55659;SDS011;41534;53.550;9.964;2024-03-23T07:18:01;10.50;;;5.07;;
55659;SDS011;41534;53.550;9.964;2024-03-23T07:21:01;11.18;;;5.00;;
55659;SDS011;41534;53.550;9.964;2024-03-23T07:24:02;11.98;;;5.10;;
55659;SDS011;41534;53.550;9.964;2024-03-23T07:27:02;11.25;;;4.90;;
55659;SDS011;41534;53.550;9.964;2024-03-23T07:30:03;10.60;;;5.00;;
55659;SDS011;41534;53.550;9.964;2024-03-23T07:33:03;11.85;;;5.60;;
55659;SDS011;41534;53.550;9.964;2024-03-23T07:36:04;9.77;;;5.20;;
55659;SDS011;41534;53.550;9.964;2024-03-23T07:39:04;8.52;;;4.78;;
55659;SDS011;41534;53.550;9.964;2024-03-23T07:42:05;11.35;;;5.28;;
55659;SDS011;41534;53.550;9.964;2024-03-23T07:45:06;12.55;;;5.00;;
55659;SDS011;41534;53.550;9.964;2024-03-23T07:48:06;10.98;;;4.82;;
55659;SDS011;41534;53.550;9.964;2024-03-23T07:51:10;7.93;;;4.38;;
55659;SDS011;41534;53.550;9.964;2024-03-23T07:54:17;11.15;;;4.32;;
55659;SDS011;41534;53.550;9.964;2024-03-23T07:57:17;7.45;;;4.00;;
55659;SDS011;41534;53.550;9.964;2024-03-23T08:00:17;8.98;;;3.80;;
55659;SDS011;41534;53.550;9.964;2024-03-23T08:03:18;7.30;;;4.40;;
55659;SDS011;41534;53.550;9.964;2024-03-23T08:06:19;8.80;;;3.60;;
55659;SDS011;41534;53.550;9.964;2024-03-23T08:09:20;9.57;;;3.90;;
55659;SDS011;41534;53.550;9.964;2024-03-23T08:12:20;7.63;;;3.42;;
55659;SDS011;41534;53.550;9.964;2024-03-23T08:15:20;12.45;;;4.15;;
55659;SDS011;41534;53.550;9.964;2024-03-23T08:18:20;8.02;;;3.42;;
55659;SDS011;41534;53.550;9.964;2024-03-23T08:21:21;8.65;;;3.75;;
55659;SDS011;41534;53.550;9.964;2024-03-23T08:24:21;8.93;;;4.03;;
55659;SDS011;41534;53.550;9.964;2024-03-23T08:27:21;6.28;;;3.45;;
55659;SDS011;41534;53.550;9.964;2024-03-23T08:30:21;5.60;;;3.40;;
55659;SDS011;41534;53.550;9.964;2024-03-23T08:33:22;7.90;;;3.30;;
55659;SDS011;41534;53.550;9.964;2024-03-23T08:36:23;6.75;;;3.22;;
55659;SDS011;41534;53.550;9.964;2024-03-23T08:39:23;8.65;;;3.40;;
55659;SDS011;41534;53.550;9.964;2024-03-23T08:42:23;6.97;;;3.30;;
55659;SDS011;41534;53.550;9.964;2024-03-23T08:45:24;6.22;;;3.17;;
55659;SDS011;41534;53.550;9.964;2024-03-23T08:48:25;6.70;;;3.28;;
55659;SDS011;41534;53.550;9.964;2024-03-23T08:51:25;8.30;;;2.78;;
55659;SDS011;41534;53.550;9.964;2024-03-23T08:54:25;8.15;;;3.10;;
55659;SDS011;41534;53.550;9.964;2024-03-23T08:57:26;7.57;;;3.58;;
55659;SDS011;41534;53.550;9.964;2024-03-23T09:00:26;7.60;;;3.35;;
55659;SDS011;41534;53.550;9.964;2024-03-23T09:03:26;7.13;;;3.13;;
55659;SDS011;41534;53.550;9.964;2024-03-23T09:06:26;6.70;;;2.92;;
55659;SDS011;41534;53.550;9.964;2024-03-23T09:09:27;6.60;;;2.92;;
55659;SDS011;41534;53.550;9.964;2024-03-23T09:12:27;4.50;;;2.88;;
55659;SDS011;41534;53.550;9.964;2024-03-23T09:15:27;8.57;;;3.00;;
55659;SDS011;41534;53.550;9.964;2024-03-23T09:18:28;7.60;;;3.20;;
55659;SDS011;41534;53.550;9.964;2024-03-23T09:21:31;4.30;;;2.90;;
55659;SDS011;41534;53.550;9.964;2024-03-23T09:24:31;7.13;;;2.70;;
55659;SDS011;41534;53.550;9.964;2024-03-23T09:27:31;6.90;;;2.50;;
55659;SDS011;41534;53.550;9.964;2024-03-23T09:30:32;5.82;;;2.90;;
55659;SDS011;41534;53.550;9.964;2024-03-23T09:33:33;5.13;;;2.53;;
55659;SDS011;41534;53.550;9.964;2024-03-23T09:36:34;6.75;;;2.72;;
55659;SDS011;41534;53.550;9.964;2024-03-23T09:39:34;6.45;;;2.30;;
55659;SDS011;41534;53.550;9.964;2024-03-23T09:42:35;6.38;;;2.97;;
55659;SDS011;41534;53.550;9.964;2024-03-23T09:45:38;9.65;;;2.65;;
55659;SDS011;41534;53.550;9.964;2024-03-23T09:48:40;7.97;;;2.33;;
55659;SDS011;41534;53.550;9.964;2024-03-23T09:51:42;11.25;;;2.60;;
55659;SDS011;41534;53.550;9.964;2024-03-23T09:54:43;7.32;;;2.13;;
55659;SDS011;41534;53.550;9.964;2024-03-23T09:57:43;5.90;;;2.22;;
55659;SDS011;41534;53.550;9.964;2024-03-23T10:00:43;5.68;;;2.35;;
55659;SDS011;41534;53.550;9.964;2024-03-23T10:03:44;5.93;;;2.40;;
55659;SDS011;41534;53.550;9.964;2024-03-23T10:06:45;5.55;;;2.45;;
55659;SDS011;41534;53.550;9.964;2024-03-23T10:09:45;4.07;;;1.92;;
55659;SDS011;41534;53.550;9.964;2024-03-23T10:12:47;7.28;;;2.20;;
55659;SDS011;41534;53.550;9.964;2024-03-23T10:15:48;6.05;;;1.88;;
55659;SDS011;41534;53.550;9.964;2024-03-23T10:18:55;4.47;;;2.10;;
55659;SDS011;41534;53.550;9.964;2024-03-23T10:21:55;4.00;;;2.00;;
55659;SDS011;41534;53.550;9.964;2024-03-23T10:24:56;5.28;;;2.00;;
55659;SDS011;41534;53.550;9.964;2024-03-23T10:28:08;6.38;;;2.30;;
55659;SDS011;41534;53.550;9.964;2024-03-23T10:31:11;6.60;;;1.95;;
55659;SDS011;41534;53.550;9.964;2024-03-23T10:34:12;4.78;;;1.95;;
55659;SDS011;41534;53.550;9.964;2024-03-23T10:37:12;3.95;;;2.40;;
55659;SDS011;41534;53.550;9.964;2024-03-23T10:40:12;3.67;;;1.90;;
55659;SDS011;41534;53.550;9.964;2024-03-23T10:43:13;4.07;;;2.00;;
55659;SDS011;41534;53.550;9.964;2024-03-23T10:46:13;2.78;;;1.90;;
55659;SDS011;41534;53.550;9.964;2024-03-23T10:49:14;3.35;;;1.80;;
55659;SDS011;41534;53.550;9.964;2024-03-23T10:52:14;3.60;;;2.05;;
55659;SDS011;41534;53.550;9.964;2024-03-23T10:55:15;2.90;;;1.90;;
55659;SDS011;41534;53.550;9.964;2024-03-23T10:58:18;3.47;;;1.85;;
55659;SDS011;41534;53.550;9.964;2024-03-23T11:01:23;3.90;;;1.88;;
55659;SDS011;41534;53.550;9.964;2024-03-23T11:04:33;3.17;;;1.80;;
55659;SDS011;41534;53.550;9.964;2024-03-23T11:07:34;2.92;;;1.58;;
55659;SDS011;41534;53.550;9.964;2024-03-23T11:10:34;4.82;;;1.77;;
55659;SDS011;41534;53.550;9.964;2024-03-23T11:13:35;2.97;;;1.60;;
55659;SDS011;41534;53.550;9.964;2024-03-23T11:16:35;3.10;;;1.70;;
55659;SDS011;41534;53.550;9.964;2024-03-23T11:19:38;3.17;;;1.83;;
55659;SDS011;41534;53.550;9.964;2024-03-23T11:22:39;2.65;;;1.83;;
55659;SDS011;41534;53.550;9.964;2024-03-23T11:25:40;3.15;;;1.55;;
55659;SDS011;41534;53.550;9.964;2024-03-23T11:28:40;3.70;;;1.70;;
55659;SDS011;41534;53.550;9.964;2024-03-23T11:31:47;2.42;;;1.63;;
55659;SDS011;41534;53.550;9.964;2024-03-23T11:34:47;2.80;;;1.70;;
55659;SDS011;41534;53.550;9.964;2024-03-23T11:38:00;3.70;;;1.60;;
55659;SDS011;41534;53.550;9.964;2024-03-23T11:41:03;2.88;;;1.85;;
55659;SDS011;41534;53.550;9.964;2024-03-23T11:47:22;2.53;;;1.70;;
55659;SDS011;41534;53.550;9.964;2024-03-23T11:50:22;4.68;;;2.03;;
55659;SDS011;41534;53.550;9.964;2024-03-23T11:53:23;3.08;;;1.83;;
55659;SDS011;41534;53.550;9.964;2024-03-23T11:56:24;2.83;;;1.90;;
55659;SDS011;41534;53.550;9.964;2024-03-23T11:59:31;2.75;;;1.83;;
55659;SDS011;41534;53.550;9.964;2024-03-23T12:02:32;2.35;;;1.60;;
55659;SDS011;41534;53.550;9.964;2024-03-23T12:05:32;3.85;;;1.80;;
55659;SDS011;41534;53.550;9.964;2024-03-23T12:08:34;2.33;;;1.67;;
55659;SDS011;41534;53.550;9.964;2024-03-23T12:11:35;6.57;;;2.05;;
55659;SDS011;41534;53.550;9.964;2024-03-23T12:14:35;7.47;;;1.73;;
55659;SDS011;41534;53.550;9.964;2024-03-23T12:17:35;5.87;;;1.93;;
55659;SDS011;41534;53.550;9.964;2024-03-23T12:20:36;2.75;;;1.67;;
55659;SDS011;41534;53.550;9.964;2024-03-23T12:23:40;4.93;;;1.90;;
55659;SDS011;41534;53.550;9.964;2024-03-23T12:26:41;11.45;;;1.77;;
55659;SDS011;41534;53.550;9.964;2024-03-23T12:29:41;5.37;;;1.80;;
55659;SDS011;41534;53.550;9.964;2024-03-23T12:32:42;5.85;;;2.13;;
55659;SDS011;41534;53.550;9.964;2024-03-23T12:35:42;4.45;;;2.03;;
55659;SDS011;41534;53.550;9.964;2024-03-23T12:38:42;2.97;;;2.20;;
55659;SDS011;41534;53.550;9.964;2024-03-23T12:41:42;2.65;;;2.05;;
55659;SDS011;41534;53.550;9.964;2024-03-23T12:44:43;3.58;;;1.95;;
55659;SDS011;41534;53.550;9.964;2024-03-23T12:47:43;5.53;;;1.92;;
55659;SDS011;41534;53.550;9.964;2024-03-23T12:50:43;4.32;;;2.00;;
55659;SDS011;41534;53.550;9.964;2024-03-23T12:53:44;4.72;;;1.98;;
55659;SDS011;41534;53.550;9.964;2024-03-23T12:56:45;3.13;;;2.03;;
55659;SDS011;41534;53.550;9.964;2024-03-23T12:59:45;2.40;;;1.70;;
55659;SDS011;41534;53.550;9.964;2024-03-23T13:02:46;6.90;;;2.25;;
55659;SDS011;41534;53.550;9.964;2024-03-23T13:05:51;3.47;;;2.20;;
55659;SDS011;41534;53.550;9.964;2024-03-23T13:08:52;1.90;;;1.70;;
55659;SDS011;41534;53.550;9.964;2024-03-23T13:11:52;4.20;;;2.20;;
55659;SDS011;41534;53.550;9.964;2024-03-23T13:14:52;2.60;;;2.00;;
55659;SDS011;41534;53.550;9.964;2024-03-23T13:17:52;8.03;;;1.77;;
55659;SDS011;41534;53.550;9.964;2024-03-23T13:20:53;3.00;;;1.92;;
55659;SDS011;41534;53.550;9.964;2024-03-23T13:23:53;3.58;;;1.80;;
55659;SDS011;41534;53.550;9.964;2024-03-23T13:26:54;5.50;;;1.53;;
55659;SDS011;41534;53.550;9.964;2024-03-23T13:29:54;3.95;;;1.83;;
55659;SDS011;41534;53.550;9.964;2024-03-23T13:32:55;3.13;;;1.90;;
55659;SDS011;41534;53.550;9.964;2024-03-23T13:35:55;2.42;;;1.95;;
55659;SDS011;41534;53.550;9.964;2024-03-23T13:38:56;4.47;;;2.13;;
55659;SDS011;41534;53.550;9.964;2024-03-23T13:41:56;3.50;;;1.92;;
55659;SDS011;41534;53.550;9.964;2024-03-23T13:44:56;4.25;;;1.98;;
55659;SDS011;41534;53.550;9.964;2024-03-23T13:47:57;3.63;;;2.55;;
55659;SDS011;41534;53.550;9.964;2024-03-23T13:51:00;4.97;;;2.42;;
55659;SDS011;41534;53.550;9.964;2024-03-23T13:54:04;4.00;;;2.88;;
55659;SDS011;41534;53.550;9.964;2024-03-23T13:57:04;3.75;;;3.15;;
55659;SDS011;41534;53.550;9.964;2024-03-23T14:00:06;3.60;;;3.20;;
55659;SDS011;41534;53.550;9.964;2024-03-23T14:03:08;3.55;;;3.25;;
55659;SDS011;41534;53.550;9.964;2024-03-23T14:06:09;7.28;;;3.80;;
55659;SDS011;41534;53.550;9.964;2024-03-23T14:09:10;5.55;;;3.90;;
55659;SDS011;41534;53.550;9.964;2024-03-23T14:12:10;6.20;;;3.95;;
55659;SDS011;41534;53.550;9.964;2024-03-23T14:15:10;5.90;;;4.40;;
55659;SDS011;41534;53.550;9.964;2024-03-23T14:18:10;7.47;;;4.70;;
55659;SDS011;41534;53.550;9.964;2024-03-23T14:21:11;8.57;;;4.43;;
55659;SDS011;41534;53.550;9.964;2024-03-23T14:24:11;19.00;;;4.45;;
55659;SDS011;41534;53.550;9.964;2024-03-23T14:27:11;9.23;;;4.40;;
55659;SDS011;41534;53.550;9.964;2024-03-23T14:30:12;13.52;;;4.28;;
55659;SDS011;41534;53.550;9.964;2024-03-23T14:33:12;5.75;;;4.10;;
55659;SDS011;41534;53.550;9.964;2024-03-23T14:36:13;9.80;;;3.80;;
55659;SDS011;41534;53.550;9.964;2024-03-23T14:39:14;8.38;;;4.38;;
55659;SDS011;41534;53.550;9.964;2024-03-23T14:42:14;7.90;;;4.45;;
55659;SDS011;41534;53.550;9.964;2024-03-23T14:45:14;9.40;;;4.10;;
55659;SDS011;41534;53.550;9.964;2024-03-23T14:48:14;4.68;;;4.15;;
55659;SDS011;41534;53.550;9.964;2024-03-23T14:51:15;5.40;;;3.97;;
55659;SDS011;41534;53.550;9.964;2024-03-23T14:54:15;4.40;;;3.92;;
55659;SDS011;41534;53.550;9.964;2024-03-23T14:57:15;6.85;;;4.18;;
55659;SDS011;41534;53.550;9.964;2024-03-23T15:00:16;5.25;;;3.80;;
55659;SDS011;41534;53.550;9.964;2024-03-23T15:03:16;4.65;;;3.90;;
55659;SDS011;41534;53.550;9.964;2024-03-23T15:06:17;7.22;;;4.00;;
55659;SDS011;41534;53.550;9.964;2024-03-23T15:09:17;10.05;;;7.88;;
55659;SDS011;41534;53.550;9.964;2024-03-23T15:12:17;13.32;;;9.35;;
55659;SDS011;41534;53.550;9.964;2024-03-23T15:15:18;9.68;;;8.18;;
55659;SDS011;41534;53.550;9.964;2024-03-23T15:18:18;11.55;;;7.90;;
55659;SDS011;41534;53.550;9.964;2024-03-23T15:21:18;9.75;;;7.82;;
55659;SDS011;41534;53.550;9.964;2024-03-23T15:24:18;10.23;;;7.53;;
55659;SDS011;41534;53.550;9.964;2024-03-23T15:27:19;8.85;;;7.68;;
55659;SDS011;41534;53.550;9.964;2024-03-23T15:30:19;8.35;;;7.60;;
55659;SDS011;41534;53.550;9.964;2024-03-23T15:33:19;10.27;;;7.47;;
55659;SDS011;41534;53.550;9.964;2024-03-23T15:36:20;9.02;;;7.45;;
55659;SDS011;41534;53.550;9.964;2024-03-23T15:39:20;10.17;;;7.80;;
55659;SDS011;41534;53.550;9.964;2024-03-23T15:42:20;9.73;;;8.45;;
55659;SDS011;41534;53.550;9.964;2024-03-23T15:45:20;10.10;;;8.90;;
55659;SDS011;41534;53.550;9.964;2024-03-23T15:48:21;11.27;;;8.27;;
55659;SDS011;41534;53.550;9.964;2024-03-23T15:51:21;8.82;;;7.95;;
55659;SDS011;41534;53.550;9.964;2024-03-23T15:54:21;11.32;;;8.32;;
55659;SDS011;41534;53.550;9.964;2024-03-23T15:57:22;10.27;;;7.80;;
55659;SDS011;41534;53.550;9.964;2024-03-23T16:00:22;8.80;;;7.95;;
55659;SDS011;41534;53.550;9.964;2024-03-23T16:03:22;12.70;;;8.75;;
55659;SDS011;41534;53.550;9.964;2024-03-23T16:06:23;10.80;;;7.18;;
55659;SDS011;41534;53.550;9.964;2024-03-23T16:09:23;13.35;;;8.15;;
55659;SDS011;41534;53.550;9.964;2024-03-23T16:12:24;12.48;;;7.82;;
55659;SDS011;41534;53.550;9.964;2024-03-23T16:15:24;10.95;;;8.10;;
55659;SDS011;41534;53.550;9.964;2024-03-23T16:18:25;10.52;;;7.55;;
55659;SDS011;41534;53.550;9.964;2024-03-23T16:21:25;11.80;;;7.47;;
55659;SDS011;41534;53.550;9.964;2024-03-23T16:24:25;11.23;;;7.40;;
55659;SDS011;41534;53.550;9.964;2024-03-23T16:27:26;8.23;;;7.40;;
55659;SDS011;41534;53.550;9.964;2024-03-23T16:30:26;8.55;;;7.30;;
55659;SDS011;41534;53.550;9.964;2024-03-23T16:33:26;8.57;;;7.67;;
55659;SDS011;41534;53.550;9.964;2024-03-23T16:36:27;9.55;;;7.78;;
55659;SDS011;41534;53.550;9.964;2024-03-23T16:39:28;9.32;;;7.47;;
55659;SDS011;41534;53.550;9.964;2024-03-23T16:42:28;8.38;;;7.53;;
55659;SDS011;41534;53.550;9.964;2024-03-23T16:45:28;7.97;;;7.10;;
55659;SDS011;41534;53.550;9.964;2024-03-23T16:48:29;8.02;;;6.60;;
55659;SDS011;41534;53.550;9.964;2024-03-23T16:51:30;7.53;;;6.72;;
55659;SDS011;41534;53.550;9.964;2024-03-23T16:54:30;7.93;;;7.18;;
55659;SDS011;41534;53.550;9.964;2024-03-23T16:57:31;9.27;;;7.40;;
55659;SDS011;41534;53.550;9.964;2024-03-23T17:00:31;9.15;;;7.03;;
55659;SDS011;41534;53.550;9.964;2024-03-23T17:03:31;8.43;;;7.10;;
55659;SDS011;41534;53.550;9.964;2024-03-23T17:06:31;9.20;;;7.43;;
55659;SDS011;41534;53.550;9.964;2024-03-23T17:09:32;8.63;;;7.25;;
55659;SDS011;41534;53.550;9.964;2024-03-23T17:12:32;7.83;;;6.80;;
55659;SDS011;41534;53.550;9.964;2024-03-23T17:15:32;8.48;;;7.07;;
55659;SDS011;41534;53.550;9.964;2024-03-23T17:18:33;7.85;;;6.68;;
55659;SDS011;41534;53.550;9.964;2024-03-23T17:21:34;9.20;;;7.10;;
55659;SDS011;41534;53.550;9.964;2024-03-23T17:24:34;6.97;;;6.38;;
55659;SDS011;41534;53.550;9.964;2024-03-23T17:27:35;8.07;;;6.37;;
55659;SDS011;41534;53.550;9.964;2024-03-23T17:30:35;8.40;;;6.60;;
55659;SDS011;41534;53.550;9.964;2024-03-23T17:33:36;7.93;;;7.15;;
55659;SDS011;41534;53.550;9.964;2024-03-23T17:36:36;7.78;;;6.97;;
55659;SDS011;41534;53.550;9.964;2024-03-23T17:39:36;7.13;;;6.50;;
55659;SDS011;41534;53.550;9.964;2024-03-23T17:42:37;7.03;;;6.20;;
55659;SDS011;41534;53.550;9.964;2024-03-23T17:45:38;7.22;;;6.53;;
55659;SDS011;41534;53.550;9.964;2024-03-23T17:48:38;7.35;;;6.72;;
55659;SDS011;41534;53.550;9.964;2024-03-23T17:51:39;7.90;;;6.07;;
55659;SDS011;41534;53.550;9.964;2024-03-23T17:54:39;6.97;;;6.25;;
55659;SDS011;41534;53.550;9.964;2024-03-23T17:57:39;6.85;;;6.15;;
55659;SDS011;41534;53.550;9.964;2024-03-23T18:00:40;7.03;;;6.43;;
55659;SDS011;41534;53.550;9.964;2024-03-23T18:03:40;10.43;;;6.63;;
55659;SDS011;41534;53.550;9.964;2024-03-23T18:06:40;7.00;;;6.30;;
55659;SDS011;41534;53.550;9.964;2024-03-23T18:09:41;6.85;;;5.97;;
55659;SDS011;41534;53.550;9.964;2024-03-23T18:12:41;8.70;;;6.70;;
55659;SDS011;41534;53.550;9.964;2024-03-23T18:15:41;7.95;;;7.25;;
55659;SDS011;41534;53.550;9.964;2024-03-23T18:18:42;9.50;;;7.53;;
55659;SDS011;41534;53.550;9.964;2024-03-23T18:21:45;15.57;;;7.30;;
55659;SDS011;41534;53.550;9.964;2024-03-23T18:24:45;7.72;;;7.00;;
55659;SDS011;41534;53.550;9.964;2024-03-23T18:27:45;8.18;;;7.20;;
55659;SDS011;41534;53.550;9.964;2024-03-23T18:30:45;10.80;;;6.60;;
55659;SDS011;41534;53.550;9.964;2024-03-23T18:33:46;10.30;;;6.70;;
55659;SDS011;41534;53.550;9.964;2024-03-23T18:36:46;7.38;;;6.68;;
55659;SDS011;41534;53.550;9.964;2024-03-23T18:39:47;6.63;;;6.03;;
55659;SDS011;41534;53.550;9.964;2024-03-23T18:42:47;6.85;;;6.15;;
55659;SDS011;41534;53.550;9.964;2024-03-23T18:45:48;8.10;;;6.95;;
55659;SDS011;41534;53.550;9.964;2024-03-23T18:48:51;7.10;;;6.47;;